sensor_id;sensor_type;location;lat;lon;timestamp;P1;durP1;ratioP1;P2;durP2;ratioP2
77117;SDS011;66072;50.238;19.228;2023-05-10T00:01:27;7.70;;;4.80;;
77117;SDS011;66072;50.238;19.228;2023-05-10T00:03:54;6.90;;;4.60;;
77117;SDS011;66072;50.238;19.228;2023-05-10T00:06:22;6.90;;;4.40;;
77117;SDS011;66072;50.238;19.228;2023-05-10T00:08:50;9.20;;;5.30;;
77117;SDS011;66072;50.238;19.228;2023-05-10T00:11:17;8.10;;;4.50;;
77117;SDS011;66072;50.238;19.228;2023-05-10T00:13:48;8.30;;;4.70;;
77117;SDS011;66072;50.238;19.228;2023-05-10T00:16:16;7.10;;;4.80;;
77117;SDS011;66072;50.238;19.228;2023-05-10T00:18:43;12.00;;;5.30;;
77117;SDS011;66072;50.238;19.228;2023-05-10T00:21:11;8.00;;;5.40;;
77117;SDS011;66072;50.238;19.228;2023-05-10T00:23:38;6.50;;;4.40;;
77117;SDS011;66072;50.238;19.228;2023-05-10T00:26:06;7.40;;;4.70;;
77117;SDS011;66072;50.238;19.228;2023-05-10T00:28:34;7.60;;;5.20;;
77117;SDS011;66072;50.238;19.228;2023-05-10T00:31:01;8.30;;;4.80;;
77117;SDS011;66072;50.238;19.228;2023-05-10T00:33:29;9.40;;;5.30;;
77117;SDS011;66072;50.238;19.228;2023-05-10T00:35:56;8.00;;;4.70;;
77117;SDS011;66072;50.238;19.228;2023-05-10T00:38:24;7.40;;;4.80;;
77117;SDS011;66072;50.238;19.228;2023-05-10T00:40:52;6.90;;;4.80;;
77117;SDS011;66072;50.238;19.228;2023-05-10T00:43:19;7.10;;;4.80;;
77117;SDS011;66072;50.238;19.228;2023-05-10T00:45:47;8.30;;;5.80;;
77117;SDS011;66072;50.238;19.228;2023-05-10T00:48:15;9.10;;;5.20;;
77117;SDS011;66072;50.238;19.228;2023-05-10T00:50:42;8.80;;;5.20;;
77117;SDS011;66072;50.238;19.228;2023-05-10T00:53:10;8.20;;;5.10;;
77117;SDS011;66072;50.238;19.228;2023-05-10T00:55:38;9.00;;;5.50;;
77117;SDS011;66072;50.238;19.228;2023-05-10T00:58:05;8.00;;;5.30;;
77117;SDS011;66072;50.238;19.228;2023-05-10T01:00:33;8.80;;;4.70;;
77117;SDS011;66072;50.238;19.228;2023-05-10T01:03:02;7.10;;;4.50;;
77117;SDS011;66072;50.238;19.228;2023-05-10T01:05:30;8.50;;;5.30;;
77117;SDS011;66072;50.238;19.228;2023-05-10T01:07:58;7.40;;;4.70;;
77117;SDS011;66072;50.238;19.228;2023-05-10T01:10:25;9.60;;;5.40;;
77117;SDS011;66072;50.238;19.228;2023-05-10T01:12:53;9.40;;;6.00;;
77117;SDS011;66072;50.238;19.228;2023-05-10T01:15:22;8.60;;;5.10;;
77117;SDS011;66072;50.238;19.228;2023-05-10T01:17:49;8.60;;;5.70;;
77117;SDS011;66072;50.238;19.228;2023-05-10T01:20:18;6.80;;;4.70;;
77117;SDS011;66072;50.238;19.228;2023-05-10T01:25:43;9.20;;;5.40;;
77117;SDS011;66072;50.238;19.228;2023-05-10T01:34:07;5.90;;;4.20;;
77117;SDS011;66072;50.238;19.228;2023-05-10T01:36:40;8.30;;;4.80;;
77117;SDS011;66072;50.238;19.228;2023-05-10T01:39:20;7.30;;;5.40;;
77117;SDS011;66072;50.238;19.228;2023-05-10T01:47:31;8.80;;;5.10;;
77117;SDS011;66072;50.238;19.228;2023-05-10T01:50:04;8.30;;;5.00;;
77117;SDS011;66072;50.238;19.228;2023-05-10T01:52:38;8.10;;;6.00;;
77117;SDS011;66072;50.238;19.228;2023-05-10T01:55:11;8.20;;;5.90;;
77117;SDS011;66072;50.238;19.228;2023-05-10T01:57:42;8.20;;;5.60;;
77117;SDS011;66072;50.238;19.228;2023-05-10T02:00:11;7.30;;;5.00;;
77117;SDS011;66072;50.238;19.228;2023-05-10T02:02:44;8.90;;;5.40;;
77117;SDS011;66072;50.238;19.228;2023-05-10T02:05:14;7.20;;;4.50;;
77117;SDS011;66072;50.238;19.228;2023-05-10T02:07:43;7.20;;;5.00;;
77117;SDS011;66072;50.238;19.228;2023-05-10T02:10:12;6.70;;;4.50;;
77117;SDS011;66072;50.238;19.228;2023-05-10T02:12:43;6.40;;;4.60;;
77117;SDS011;66072;50.238;19.228;2023-05-10T02:15:16;6.70;;;4.60;;
77117;SDS011;66072;50.238;19.228;2023-05-10T02:17:52;9.60;;;5.10;;
77117;SDS011;66072;50.238;19.228;2023-05-10T02:20:22;6.90;;;4.80;;
77117;SDS011;66072;50.238;19.228;2023-05-10T02:22:52;7.60;;;4.90;;
77117;SDS011;66072;50.238;19.228;2023-05-10T02:25:23;7.20;;;5.00;;
77117;SDS011;66072;50.238;19.228;2023-05-10T02:27:53;7.00;;;4.70;;
77117;SDS011;66072;50.238;19.228;2023-05-10T02:30:23;6.90;;;4.70;;
77117;SDS011;66072;50.238;19.228;2023-05-10T02:32:51;8.20;;;5.60;;
77117;SDS011;66072;50.238;19.228;2023-05-10T02:35:19;7.70;;;4.90;;
77117;SDS011;66072;50.238;19.228;2023-05-10T02:37:48;5.90;;;4.70;;
77117;SDS011;66072;50.238;19.228;2023-05-10T02:40:17;6.80;;;4.40;;
77117;SDS011;66072;50.238;19.228;2023-05-10T02:42:47;6.70;;;4.00;;
77117;SDS011;66072;50.238;19.228;2023-05-10T02:45:17;7.30;;;4.30;;
77117;SDS011;66072;50.238;19.228;2023-05-10T02:47:47;6.70;;;4.60;;
77117;SDS011;66072;50.238;19.228;2023-05-10T02:50:15;7.50;;;4.40;;
77117;SDS011;66072;50.238;19.228;2023-05-10T02:52:56;6.80;;;4.50;;
77117;SDS011;66072;50.238;19.228;2023-05-10T02:55:30;6.20;;;4.10;;
77117;SDS011;66072;50.238;19.228;2023-05-10T02:58:00;5.80;;;4.60;;
77117;SDS011;66072;50.238;19.228;2023-05-10T03:00:29;7.50;;;4.20;;
77117;SDS011;66072;50.238;19.228;2023-05-10T03:02:57;5.10;;;3.60;;
77117;SDS011;66072;50.238;19.228;2023-05-10T03:05:27;7.60;;;5.00;;
77117;SDS011;66072;50.238;19.228;2023-05-10T03:07:56;6.80;;;4.30;;
77117;SDS011;66072;50.238;19.228;2023-05-10T03:10:26;9.70;;;4.80;;
77117;SDS011;66072;50.238;19.228;2023-05-10T03:16:08;6.50;;;4.50;;
77117;SDS011;66072;50.238;19.228;2023-05-10T03:21:12;11.70;;;6.00;;
77117;SDS011;66072;50.238;19.228;2023-05-10T03:23:46;7.10;;;4.40;;
77117;SDS011;66072;50.238;19.228;2023-05-10T03:26:27;6.40;;;4.90;;
77117;SDS011;66072;50.238;19.228;2023-05-10T03:28:55;6.70;;;5.20;;
77117;SDS011;66072;50.238;19.228;2023-05-10T03:31:24;7.00;;;4.60;;
77117;SDS011;66072;50.238;19.228;2023-05-10T03:33:52;7.00;;;4.90;;
77117;SDS011;66072;50.238;19.228;2023-05-10T03:36:20;6.20;;;4.30;;
77117;SDS011;66072;50.238;19.228;2023-05-10T03:38:48;6.80;;;5.30;;
77117;SDS011;66072;50.238;19.228;2023-05-10T03:41:15;7.10;;;5.00;;
77117;SDS011;66072;50.238;19.228;2023-05-10T03:43:43;7.70;;;4.80;;
77117;SDS011;66072;50.238;19.228;2023-05-10T03:46:10;7.10;;;4.70;;
77117;SDS011;66072;50.238;19.228;2023-05-10T03:48:38;7.10;;;4.90;;
77117;SDS011;66072;50.238;19.228;2023-05-10T03:51:06;7.90;;;5.00;;
77117;SDS011;66072;50.238;19.228;2023-05-10T03:53:33;8.40;;;5.30;;
77117;SDS011;66072;50.238;19.228;2023-05-10T03:56:01;6.50;;;3.90;;
77117;SDS011;66072;50.238;19.228;2023-05-10T03:58:28;9.00;;;5.40;;
77117;SDS011;66072;50.238;19.228;2023-05-10T04:00:56;6.90;;;4.70;;
77117;SDS011;66072;50.238;19.228;2023-05-10T04:03:23;7.60;;;5.30;;
77117;SDS011;66072;50.238;19.228;2023-05-10T04:06:00;7.90;;;5.30;;
77117;SDS011;66072;50.238;19.228;2023-05-10T04:08:29;9.10;;;5.60;;
77117;SDS011;66072;50.238;19.228;2023-05-10T04:11:10;8.10;;;5.20;;
77117;SDS011;66072;50.238;19.228;2023-05-10T04:13:38;8.20;;;5.50;;
77117;SDS011;66072;50.238;19.228;2023-05-10T04:16:06;7.80;;;5.10;;
77117;SDS011;66072;50.238;19.228;2023-05-10T04:18:34;7.60;;;5.20;;
77117;SDS011;66072;50.238;19.228;2023-05-10T04:21:02;9.60;;;6.50;;
77117;SDS011;66072;50.238;19.228;2023-05-10T04:23:29;7.70;;;5.10;;
77117;SDS011;66072;50.238;19.228;2023-05-10T04:26:00;7.10;;;5.10;;
77117;SDS011;66072;50.238;19.228;2023-05-10T04:28:28;6.60;;;4.60;;
77117;SDS011;66072;50.238;19.228;2023-05-10T04:31:06;7.90;;;5.10;;
77117;SDS011;66072;50.238;19.228;2023-05-10T04:33:35;7.80;;;5.10;;
77117;SDS011;66072;50.238;19.228;2023-05-10T04:36:03;7.80;;;5.50;;
77117;SDS011;66072;50.238;19.228;2023-05-10T04:38:31;8.00;;;5.30;;
77117;SDS011;66072;50.238;19.228;2023-05-10T04:41:08;7.30;;;4.80;;
77117;SDS011;66072;50.238;19.228;2023-05-10T04:43:37;10.20;;;4.90;;
77117;SDS011;66072;50.238;19.228;2023-05-10T04:46:05;7.10;;;4.50;;
77117;SDS011;66072;50.238;19.228;2023-05-10T04:48:33;8.50;;;4.80;;
77117;SDS011;66072;50.238;19.228;2023-05-10T04:51:01;8.40;;;4.90;;
77117;SDS011;66072;50.238;19.228;2023-05-10T04:53:28;5.20;;;3.10;;
77117;SDS011;66072;50.238;19.228;2023-05-10T04:55:56;6.60;;;4.10;;
77117;SDS011;66072;50.238;19.228;2023-05-10T04:58:23;6.10;;;3.70;;
77117;SDS011;66072;50.238;19.228;2023-05-10T05:00:51;8.00;;;4.30;;
77117;SDS011;66072;50.238;19.228;2023-05-10T05:03:19;9.90;;;5.20;;
77117;SDS011;66072;50.238;19.228;2023-05-10T05:05:46;7.00;;;4.80;;
77117;SDS011;66072;50.238;19.228;2023-05-10T05:08:14;7.70;;;4.70;;
77117;SDS011;66072;50.238;19.228;2023-05-10T05:10:42;6.70;;;3.90;;
77117;SDS011;66072;50.238;19.228;2023-05-10T05:13:09;6.70;;;4.50;;
77117;SDS011;66072;50.238;19.228;2023-05-10T05:15:37;9.00;;;5.60;;
77117;SDS011;66072;50.238;19.228;2023-05-10T05:18:04;6.80;;;4.10;;
77117;SDS011;66072;50.238;19.228;2023-05-10T05:20:33;4.70;;;2.90;;
77117;SDS011;66072;50.238;19.228;2023-05-10T05:23:00;7.10;;;5.00;;
77117;SDS011;66072;50.238;19.228;2023-05-10T05:25:28;6.60;;;5.00;;
77117;SDS011;66072;50.238;19.228;2023-05-10T05:27:56;8.10;;;3.90;;
77117;SDS011;66072;50.238;19.228;2023-05-10T05:30:23;7.30;;;3.80;;
77117;SDS011;66072;50.238;19.228;2023-05-10T05:32:51;6.60;;;4.40;;
77117;SDS011;66072;50.238;19.228;2023-05-10T05:35:18;6.40;;;3.80;;
77117;SDS011;66072;50.238;19.228;2023-05-10T05:37:46;9.40;;;4.50;;
77117;SDS011;66072;50.238;19.228;2023-05-10T05:40:13;8.40;;;4.90;;
77117;SDS011;66072;50.238;19.228;2023-05-10T05:42:41;6.30;;;3.90;;
77117;SDS011;66072;50.238;19.228;2023-05-10T05:45:09;7.30;;;3.90;;
77117;SDS011;66072;50.238;19.228;2023-05-10T05:47:37;5.60;;;3.10;;
77117;SDS011;66072;50.238;19.228;2023-05-10T05:50:04;6.90;;;4.20;;
77117;SDS011;66072;50.238;19.228;2023-05-10T05:52:33;4.90;;;3.10;;
77117;SDS011;66072;50.238;19.228;2023-05-10T05:55:03;7.10;;;3.60;;
77117;SDS011;66072;50.238;19.228;2023-05-10T05:57:31;5.10;;;3.40;;
77117;SDS011;66072;50.238;19.228;2023-05-10T05:59:59;5.50;;;3.20;;
77117;SDS011;66072;50.238;19.228;2023-05-10T06:02:26;5.50;;;3.90;;
77117;SDS011;66072;50.238;19.228;2023-05-10T06:04:54;6.20;;;4.10;;
77117;SDS011;66072;50.238;19.228;2023-05-10T06:07:22;6.00;;;3.50;;
77117;SDS011;66072;50.238;19.228;2023-05-10T06:09:49;5.70;;;3.70;;
77117;SDS011;66072;50.238;19.228;2023-05-10T06:12:17;5.90;;;4.10;;
77117;SDS011;66072;50.238;19.228;2023-05-10T06:14:44;5.50;;;3.50;;
77117;SDS011;66072;50.238;19.228;2023-05-10T06:17:12;4.70;;;2.80;;
77117;SDS011;66072;50.238;19.228;2023-05-10T06:19:39;5.60;;;3.10;;
77117;SDS011;66072;50.238;19.228;2023-05-10T06:22:07;5.50;;;3.50;;
77117;SDS011;66072;50.238;19.228;2023-05-10T06:24:35;5.20;;;3.40;;
77117;SDS011;66072;50.238;19.228;2023-05-10T06:27:02;4.10;;;2.70;;
77117;SDS011;66072;50.238;19.228;2023-05-10T06:29:30;5.30;;;2.90;;
77117;SDS011;66072;50.238;19.228;2023-05-10T06:31:57;5.40;;;3.30;;
77117;SDS011;66072;50.238;19.228;2023-05-10T06:34:25;7.50;;;3.70;;
77117;SDS011;66072;50.238;19.228;2023-05-10T06:36:53;4.80;;;2.90;;
77117;SDS011;66072;50.238;19.228;2023-05-10T06:39:20;4.70;;;2.80;;
77117;SDS011;66072;50.238;19.228;2023-05-10T06:41:48;5.20;;;3.60;;
77117;SDS011;66072;50.238;19.228;2023-05-10T06:44:15;5.00;;;3.20;;
77117;SDS011;66072;50.238;19.228;2023-05-10T06:46:43;4.80;;;2.90;;
77117;SDS011;66072;50.238;19.228;2023-05-10T06:49:11;4.00;;;2.50;;
77117;SDS011;66072;50.238;19.228;2023-05-10T06:51:38;4.40;;;2.50;;
77117;SDS011;66072;50.238;19.228;2023-05-10T06:54:06;5.30;;;2.30;;
77117;SDS011;66072;50.238;19.228;2023-05-10T06:56:33;4.60;;;2.50;;
77117;SDS011;66072;50.238;19.228;2023-05-10T06:59:01;4.10;;;2.50;;
77117;SDS011;66072;50.238;19.228;2023-05-10T07:01:29;4.90;;;3.30;;
77117;SDS011;66072;50.238;19.228;2023-05-10T07:03:56;5.20;;;2.90;;
77117;SDS011;66072;50.238;19.228;2023-05-10T07:06:24;4.10;;;2.40;;
77117;SDS011;66072;50.238;19.228;2023-05-10T07:09:00;6.00;;;2.90;;
77117;SDS011;66072;50.238;19.228;2023-05-10T07:11:28;5.80;;;2.70;;
77117;SDS011;66072;50.238;19.228;2023-05-10T07:13:55;3.50;;;2.40;;
77117;SDS011;66072;50.238;19.228;2023-05-10T07:16:23;4.80;;;2.20;;
77117;SDS011;66072;50.238;19.228;2023-05-10T07:18:51;4.00;;;2.50;;
77117;SDS011;66072;50.238;19.228;2023-05-10T07:21:18;3.60;;;2.10;;
77117;SDS011;66072;50.238;19.228;2023-05-10T07:23:46;5.20;;;3.00;;
77117;SDS011;66072;50.238;19.228;2023-05-10T07:26:14;4.80;;;2.90;;
77117;SDS011;66072;50.238;19.228;2023-05-10T07:28:41;5.60;;;3.20;;
77117;SDS011;66072;50.238;19.228;2023-05-10T07:31:09;5.30;;;2.90;;
77117;SDS011;66072;50.238;19.228;2023-05-10T07:33:37;4.30;;;2.80;;
77117;SDS011;66072;50.238;19.228;2023-05-10T07:36:04;7.70;;;2.80;;
77117;SDS011;66072;50.238;19.228;2023-05-10T07:38:32;3.50;;;2.40;;
77117;SDS011;66072;50.238;19.228;2023-05-10T07:40:59;5.40;;;2.70;;
77117;SDS011;66072;50.238;19.228;2023-05-10T07:43:27;5.30;;;2.70;;
77117;SDS011;66072;50.238;19.228;2023-05-10T07:45:55;4.20;;;2.70;;
77117;SDS011;66072;50.238;19.228;2023-05-10T07:48:22;3.90;;;2.50;;
77117;SDS011;66072;50.238;19.228;2023-05-10T07:50:50;5.00;;;2.70;;
77117;SDS011;66072;50.238;19.228;2023-05-10T07:53:18;3.10;;;1.60;;
77117;SDS011;66072;50.238;19.228;2023-05-10T07:55:49;4.30;;;2.70;;
77117;SDS011;66072;50.238;19.228;2023-05-10T07:58:18;5.70;;;2.30;;
77117;SDS011;66072;50.238;19.228;2023-05-10T08:00:48;5.70;;;2.70;;
77117;SDS011;66072;50.238;19.228;2023-05-10T08:03:15;3.70;;;2.50;;
77117;SDS011;66072;50.238;19.228;2023-05-10T08:05:43;6.10;;;2.60;;
77117;SDS011;66072;50.238;19.228;2023-05-10T08:08:11;4.50;;;2.20;;
77117;SDS011;66072;50.238;19.228;2023-05-10T08:10:38;4.90;;;2.50;;
77117;SDS011;66072;50.238;19.228;2023-05-10T08:13:06;4.20;;;2.70;;
77117;SDS011;66072;50.238;19.228;2023-05-10T08:15:33;3.70;;;2.20;;
77117;SDS011;66072;50.238;19.228;2023-05-10T08:18:01;4.00;;;2.60;;
77117;SDS011;66072;50.238;19.228;2023-05-10T08:20:29;4.00;;;2.00;;
77117;SDS011;66072;50.238;19.228;2023-05-10T08:22:56;4.50;;;2.10;;
77117;SDS011;66072;50.238;19.228;2023-05-10T08:25:24;5.80;;;3.20;;
77117;SDS011;66072;50.238;19.228;2023-05-10T08:27:51;3.70;;;2.30;;
77117;SDS011;66072;50.238;19.228;2023-05-10T08:30:19;4.50;;;2.30;;
77117;SDS011;66072;50.238;19.228;2023-05-10T08:32:46;4.70;;;2.40;;
77117;SDS011;66072;50.238;19.228;2023-05-10T08:35:15;3.80;;;2.10;;
77117;SDS011;66072;50.238;19.228;2023-05-10T08:37:43;3.70;;;2.30;;
77117;SDS011;66072;50.238;19.228;2023-05-10T08:40:11;3.70;;;1.90;;
77117;SDS011;66072;50.238;19.228;2023-05-10T08:42:39;3.90;;;2.20;;
77117;SDS011;66072;50.238;19.228;2023-05-10T08:45:10;4.10;;;2.10;;
77117;SDS011;66072;50.238;19.228;2023-05-10T08:47:39;4.40;;;2.10;;
77117;SDS011;66072;50.238;19.228;2023-05-10T08:50:07;4.50;;;2.20;;
77117;SDS011;66072;50.238;19.228;2023-05-10T08:52:35;3.50;;;2.10;;
77117;SDS011;66072;50.238;19.228;2023-05-10T08:55:05;3.60;;;2.20;;
77117;SDS011;66072;50.238;19.228;2023-05-10T08:57:33;3.70;;;2.00;;
77117;SDS011;66072;50.238;19.228;2023-05-10T09:00:01;3.70;;;2.00;;
77117;SDS011;66072;50.238;19.228;2023-05-10T09:02:28;4.70;;;2.40;;
77117;SDS011;66072;50.238;19.228;2023-05-10T09:04:57;4.20;;;2.40;;
77117;SDS011;66072;50.238;19.228;2023-05-10T09:07:25;3.50;;;1.90;;
77117;SDS011;66072;50.238;19.228;2023-05-10T09:09:52;3.40;;;2.10;;
77117;SDS011;66072;50.238;19.228;2023-05-10T09:12:21;4.00;;;2.30;;
77117;SDS011;66072;50.238;19.228;2023-05-10T09:14:50;4.00;;;1.90;;
77117;SDS011;66072;50.238;19.228;2023-05-10T09:17:20;2.90;;;1.90;;
77117;SDS011;66072;50.238;19.228;2023-05-10T09:19:56;3.90;;;2.40;;
77117;SDS011;66072;50.238;19.228;2023-05-10T09:22:26;3.50;;;1.90;;
77117;SDS011;66072;50.238;19.228;2023-05-10T09:27:38;3.90;;;2.00;;
77117;SDS011;66072;50.238;19.228;2023-05-10T09:30:08;3.40;;;2.10;;
77117;SDS011;66072;50.238;19.228;2023-05-10T09:32:40;4.40;;;2.40;;
77117;SDS011;66072;50.238;19.228;2023-05-10T09:37:42;3.70;;;2.50;;
77117;SDS011;66072;50.238;19.228;2023-05-10T09:40:18;3.60;;;2.30;;
77117;SDS011;66072;50.238;19.228;2023-05-10T09:42:53;4.00;;;2.40;;
77117;SDS011;66072;50.238;19.228;2023-05-10T09:45:41;3.20;;;1.90;;
77117;SDS011;66072;50.238;19.228;2023-05-10T09:48:09;3.80;;;2.00;;
77117;SDS011;66072;50.238;19.228;2023-05-10T09:50:37;4.70;;;2.50;;
77117;SDS011;66072;50.238;19.228;2023-05-10T09:53:04;4.40;;;1.90;;
77117;SDS011;66072;50.238;19.228;2023-05-10T09:58:07;4.50;;;2.20;;
77117;SDS011;66072;50.238;19.228;2023-05-10T10:03:16;4.30;;;2.00;;
77117;SDS011;66072;50.238;19.228;2023-05-10T10:08:13;4.00;;;2.40;;
77117;SDS011;66072;50.238;19.228;2023-05-10T10:10:42;3.70;;;1.90;;
77117;SDS011;66072;50.238;19.228;2023-05-10T10:13:10;3.80;;;1.90;;
77117;SDS011;66072;50.238;19.228;2023-05-10T10:15:38;3.50;;;2.00;;
77117;SDS011;66072;50.238;19.228;2023-05-10T10:18:06;3.30;;;2.00;;
77117;SDS011;66072;50.238;19.228;2023-05-10T10:20:35;3.70;;;2.00;;
77117;SDS011;66072;50.238;19.228;2023-05-10T10:23:04;2.80;;;1.60;;
77117;SDS011;66072;50.238;19.228;2023-05-10T10:25:32;3.80;;;1.90;;
77117;SDS011;66072;50.238;19.228;2023-05-10T10:28:07;3.80;;;1.90;;
77117;SDS011;66072;50.238;19.228;2023-05-10T10:30:54;4.40;;;2.40;;
77117;SDS011;66072;50.238;19.228;2023-05-10T10:36:15;3.80;;;2.10;;
77117;SDS011;66072;50.238;19.228;2023-05-10T10:49:42;4.00;;;1.90;;
77117;SDS011;66072;50.238;19.228;2023-05-10T10:52:20;3.30;;;1.60;;
77117;SDS011;66072;50.238;19.228;2023-05-10T10:55:08;3.20;;;2.00;;
77117;SDS011;66072;50.238;19.228;2023-05-10T11:00:27;4.30;;;1.90;;
77117;SDS011;66072;50.238;19.228;2023-05-10T11:08:06;2.90;;;1.70;;
77117;SDS011;66072;50.238;19.228;2023-05-10T11:13:28;4.40;;;2.40;;
77117;SDS011;66072;50.238;19.228;2023-05-10T11:16:23;3.90;;;2.00;;
77117;SDS011;66072;50.238;19.228;2023-05-10T11:19:07;3.40;;;1.80;;
77117;SDS011;66072;50.238;19.228;2023-05-10T11:22:12;5.00;;;2.00;;
77117;SDS011;66072;50.238;19.228;2023-05-10T11:24:33;3.30;;;2.10;;
77117;SDS011;66072;50.238;19.228;2023-05-10T11:27:00;3.10;;;1.80;;
77117;SDS011;66072;50.238;19.228;2023-05-10T11:29:29;4.80;;;1.90;;
77117;SDS011;66072;50.238;19.228;2023-05-10T11:31:57;3.80;;;2.10;;
77117;SDS011;66072;50.238;19.228;2023-05-10T11:34:29;3.50;;;1.80;;
77117;SDS011;66072;50.238;19.228;2023-05-10T11:36:57;3.00;;;1.60;;
77117;SDS011;66072;50.238;19.228;2023-05-10T11:39:29;2.90;;;1.80;;
77117;SDS011;66072;50.238;19.228;2023-05-10T11:41:58;3.80;;;1.90;;
77117;SDS011;66072;50.238;19.228;2023-05-10T11:44:30;4.20;;;1.70;;
77117;SDS011;66072;50.238;19.228;2023-05-10T11:46:59;2.70;;;1.70;;
77117;SDS011;66072;50.238;19.228;2023-05-10T11:49:27;5.00;;;2.40;;
77117;SDS011;66072;50.238;19.228;2023-05-10T11:52:04;2.50;;;1.50;;
77117;SDS011;66072;50.238;19.228;2023-05-10T11:54:33;4.60;;;2.30;;
77117;SDS011;66072;50.238;19.228;2023-05-10T11:57:01;2.90;;;1.70;;
77117;SDS011;66072;50.238;19.228;2023-05-10T11:59:29;3.40;;;1.80;;
77117;SDS011;66072;50.238;19.228;2023-05-10T12:01:56;2.80;;;1.70;;
77117;SDS011;66072;50.238;19.228;2023-05-10T12:04:24;3.10;;;1.60;;
77117;SDS011;66072;50.238;19.228;2023-05-10T12:06:53;3.20;;;1.60;;
77117;SDS011;66072;50.238;19.228;2023-05-10T12:09:21;4.10;;;1.80;;
77117;SDS011;66072;50.238;19.228;2023-05-10T12:12:06;5.90;;;2.10;;
77117;SDS011;66072;50.238;19.228;2023-05-10T12:14:34;4.70;;;2.00;;
77117;SDS011;66072;50.238;19.228;2023-05-10T12:17:05;4.30;;;1.80;;
77117;SDS011;66072;50.238;19.228;2023-05-10T12:19:39;3.30;;;2.10;;
77117;SDS011;66072;50.238;19.228;2023-05-10T12:22:07;3.40;;;1.70;;
77117;SDS011;66072;50.238;19.228;2023-05-10T12:24:35;2.70;;;1.50;;
77117;SDS011;66072;50.238;19.228;2023-05-10T12:27:07;3.10;;;1.60;;
77117;SDS011;66072;50.238;19.228;2023-05-10T12:29:35;2.80;;;1.60;;
77117;SDS011;66072;50.238;19.228;2023-05-10T12:32:06;3.40;;;2.00;;
77117;SDS011;66072;50.238;19.228;2023-05-10T12:34:34;3.90;;;2.10;;
77117;SDS011;66072;50.238;19.228;2023-05-10T12:37:02;3.40;;;1.80;;
77117;SDS011;66072;50.238;19.228;2023-05-10T12:39:40;3.40;;;1.60;;
77117;SDS011;66072;50.238;19.228;2023-05-10T12:42:09;3.30;;;1.40;;
77117;SDS011;66072;50.238;19.228;2023-05-10T12:44:37;3.80;;;1.90;;
77117;SDS011;66072;50.238;19.228;2023-05-10T12:47:04;3.20;;;1.90;;
77117;SDS011;66072;50.238;19.228;2023-05-10T12:49:32;3.10;;;1.50;;
77117;SDS011;66072;50.238;19.228;2023-05-10T12:52:00;2.80;;;1.60;;
77117;SDS011;66072;50.238;19.228;2023-05-10T12:54:27;3.90;;;1.40;;
77117;SDS011;66072;50.238;19.228;2023-05-10T12:56:58;3.00;;;1.40;;
77117;SDS011;66072;50.238;19.228;2023-05-10T12:59:26;2.70;;;1.40;;
77117;SDS011;66072;50.238;19.228;2023-05-10T13:01:53;3.10;;;1.60;;
77117;SDS011;66072;50.238;19.228;2023-05-10T13:04:21;3.60;;;1.30;;
77117;SDS011;66072;50.238;19.228;2023-05-10T13:06:49;2.70;;;1.40;;
77117;SDS011;66072;50.238;19.228;2023-05-10T13:09:16;2.70;;;1.20;;
77117;SDS011;66072;50.238;19.228;2023-05-10T13:11:44;3.50;;;1.40;;
77117;SDS011;66072;50.238;19.228;2023-05-10T13:14:12;4.50;;;1.60;;
77117;SDS011;66072;50.238;19.228;2023-05-10T13:16:39;3.80;;;1.30;;
77117;SDS011;66072;50.238;19.228;2023-05-10T13:19:10;3.00;;;1.30;;
77117;SDS011;66072;50.238;19.228;2023-05-10T13:21:38;3.40;;;1.40;;
77117;SDS011;66072;50.238;19.228;2023-05-10T13:24:05;2.40;;;1.30;;
77117;SDS011;66072;50.238;19.228;2023-05-10T13:26:33;2.80;;;1.40;;
77117;SDS011;66072;50.238;19.228;2023-05-10T13:29:01;2.50;;;1.50;;
77117;SDS011;66072;50.238;19.228;2023-05-10T13:31:32;4.10;;;1.70;;
77117;SDS011;66072;50.238;19.228;2023-05-10T13:34:01;3.40;;;1.40;;
77117;SDS011;66072;50.238;19.228;2023-05-10T13:36:29;2.50;;;1.40;;
77117;SDS011;66072;50.238;19.228;2023-05-10T13:38:57;3.20;;;1.40;;
77117;SDS011;66072;50.238;19.228;2023-05-10T13:41:24;2.70;;;1.30;;
77117;SDS011;66072;50.238;19.228;2023-05-10T13:43:52;2.80;;;1.60;;
77117;SDS011;66072;50.238;19.228;2023-05-10T13:46:22;5.00;;;1.90;;
77117;SDS011;66072;50.238;19.228;2023-05-10T13:48:53;3.10;;;1.40;;
77117;SDS011;66072;50.238;19.228;2023-05-10T13:51:20;2.70;;;1.40;;
77117;SDS011;66072;50.238;19.228;2023-05-10T13:53:48;2.60;;;1.40;;
77117;SDS011;66072;50.238;19.228;2023-05-10T13:56:16;2.70;;;1.40;;
77117;SDS011;66072;50.238;19.228;2023-05-10T13:58:43;3.10;;;1.30;;
77117;SDS011;66072;50.238;19.228;2023-05-10T14:01:11;2.90;;;1.50;;
77117;SDS011;66072;50.238;19.228;2023-05-10T14:03:39;3.80;;;1.60;;
77117;SDS011;66072;50.238;19.228;2023-05-10T14:06:07;4.20;;;1.40;;
77117;SDS011;66072;50.238;19.228;2023-05-10T14:11:06;3.50;;;1.70;;
77117;SDS011;66072;50.238;19.228;2023-05-10T14:13:34;3.20;;;1.80;;
77117;SDS011;66072;50.238;19.228;2023-05-10T14:16:01;3.10;;;1.50;;
77117;SDS011;66072;50.238;19.228;2023-05-10T14:18:29;3.20;;;1.70;;
77117;SDS011;66072;50.238;19.228;2023-05-10T14:20:56;3.10;;;1.80;;
77117;SDS011;66072;50.238;19.228;2023-05-10T14:23:24;3.10;;;1.50;;
77117;SDS011;66072;50.238;19.228;2023-05-10T14:25:52;3.60;;;2.00;;
77117;SDS011;66072;50.238;19.228;2023-05-10T14:28:20;3.00;;;1.60;;
77117;SDS011;66072;50.238;19.228;2023-05-10T14:30:47;3.30;;;1.70;;
77117;SDS011;66072;50.238;19.228;2023-05-10T14:33:16;3.40;;;1.80;;
77117;SDS011;66072;50.238;19.228;2023-05-10T14:35:44;3.90;;;1.80;;
77117;SDS011;66072;50.238;19.228;2023-05-10T14:38:12;3.70;;;1.90;;
77117;SDS011;66072;50.238;19.228;2023-05-10T14:40:40;3.80;;;2.20;;
77117;SDS011;66072;50.238;19.228;2023-05-10T14:43:08;2.70;;;1.60;;
77117;SDS011;66072;50.238;19.228;2023-05-10T14:45:36;3.30;;;1.70;;
77117;SDS011;66072;50.238;19.228;2023-05-10T14:48:04;3.00;;;1.80;;
77117;SDS011;66072;50.238;19.228;2023-05-10T14:50:32;3.40;;;1.50;;
77117;SDS011;66072;50.238;19.228;2023-05-10T14:53:03;3.10;;;1.70;;
77117;SDS011;66072;50.238;19.228;2023-05-10T14:55:31;3.30;;;1.80;;
77117;SDS011;66072;50.238;19.228;2023-05-10T14:57:59;3.10;;;1.60;;
77117;SDS011;66072;50.238;19.228;2023-05-10T15:00:27;4.20;;;1.90;;
77117;SDS011;66072;50.238;19.228;2023-05-10T15:02:56;3.50;;;2.30;;
77117;SDS011;66072;50.238;19.228;2023-05-10T15:05:25;3.60;;;1.90;;
77117;SDS011;66072;50.238;19.228;2023-05-10T15:07:53;3.10;;;1.50;;
77117;SDS011;66072;50.238;19.228;2023-05-10T15:10:21;3.30;;;1.70;;
77117;SDS011;66072;50.238;19.228;2023-05-10T15:12:49;3.30;;;1.50;;
77117;SDS011;66072;50.238;19.228;2023-05-10T15:15:17;4.40;;;1.80;;
77117;SDS011;66072;50.238;19.228;2023-05-10T15:17:45;2.80;;;1.70;;
77117;SDS011;66072;50.238;19.228;2023-05-10T15:20:13;3.80;;;1.60;;
77117;SDS011;66072;50.238;19.228;2023-05-10T15:22:40;3.20;;;1.60;;
77117;SDS011;66072;50.238;19.228;2023-05-10T15:25:08;3.30;;;1.70;;
77117;SDS011;66072;50.238;19.228;2023-05-10T15:27:39;4.10;;;2.30;;
77117;SDS011;66072;50.238;19.228;2023-05-10T15:30:06;3.70;;;1.80;;
77117;SDS011;66072;50.238;19.228;2023-05-10T15:32:37;3.60;;;2.50;;
77117;SDS011;66072;50.238;19.228;2023-05-10T15:35:05;3.60;;;2.30;;
77117;SDS011;66072;50.238;19.228;2023-05-10T15:37:37;4.90;;;2.20;;
77117;SDS011;66072;50.238;19.228;2023-05-10T15:40:05;3.30;;;2.20;;
77117;SDS011;66072;50.238;19.228;2023-05-10T15:42:33;3.70;;;2.00;;
77117;SDS011;66072;50.238;19.228;2023-05-10T15:45:00;3.30;;;1.70;;